sensor_id;sensor_type;location;lat;lon;timestamp;P1;durP1;ratioP1;P2;durP2;ratioP2
29568;SDS011;16501;51.462;14.346;2022-11-20T00:01:29;30.15;;;12.82;;
29568;SDS011;16501;51.462;14.346;2022-11-20T00:03:55;29.23;;;13.30;;
29568;SDS011;16501;51.462;14.346;2022-11-20T00:06:22;24.58;;;12.25;;
29568;SDS011;16501;51.462;14.346;2022-11-20T00:08:48;31.55;;;13.73;;
29568;SDS011;16501;51.462;14.346;2022-11-20T00:11:15;27.45;;;11.65;;
29568;SDS011;16501;51.462;14.346;2022-11-20T00:13:45;30.95;;;13.35;;
29568;SDS011;16501;51.462;14.346;2022-11-20T00:16:12;28.85;;;13.18;;
29568;SDS011;16501;51.462;14.346;2022-11-20T00:18:39;29.05;;;13.05;;
29568;SDS011;16501;51.462;14.346;2022-11-20T00:21:06;26.17;;;12.13;;
29568;SDS011;16501;51.462;14.346;2022-11-20T00:23:34;27.48;;;12.40;;
29568;SDS011;16501;51.462;14.346;2022-11-20T00:26:03;29.83;;;14.00;;
29568;SDS011;16501;51.462;14.346;2022-11-20T00:28:29;27.92;;;12.85;;
29568;SDS011;16501;51.462;14.346;2022-11-20T00:31:02;29.33;;;12.73;;
29568;SDS011;16501;51.462;14.346;2022-11-20T00:33:29;28.73;;;13.55;;
29568;SDS011;16501;51.462;14.346;2022-11-20T00:35:58;29.17;;;13.63;;
29568;SDS011;16501;51.462;14.346;2022-11-20T00:38:25;30.55;;;13.55;;
29568;SDS011;16501;51.462;14.346;2022-11-20T00:40:54;26.25;;;12.40;;
29568;SDS011;16501;51.462;14.346;2022-11-20T00:43:21;28.20;;;12.77;;
29568;SDS011;16501;51.462;14.346;2022-11-20T00:45:46;25.30;;;12.50;;
29568;SDS011;16501;51.462;14.346;2022-11-20T00:48:11;29.75;;;12.57;;
29568;SDS011;16501;51.462;14.346;2022-11-20T00:50:36;26.85;;;12.75;;
29568;SDS011;16501;51.462;14.346;2022-11-20T00:53:02;28.73;;;13.00;;
29568;SDS011;16501;51.462;14.346;2022-11-20T00:55:27;30.10;;;12.93;;
29568;SDS011;16501;51.462;14.346;2022-11-20T00:57:52;27.13;;;13.13;;
29568;SDS011;16501;51.462;14.346;2022-11-20T01:00:17;28.35;;;13.52;;
29568;SDS011;16501;51.462;14.346;2022-11-20T01:02:43;29.02;;;13.95;;
29568;SDS011;16501;51.462;14.346;2022-11-20T01:05:08;31.45;;;13.65;;
29568;SDS011;16501;51.462;14.346;2022-11-20T01:07:33;29.77;;;12.93;;
29568;SDS011;16501;51.462;14.346;2022-11-20T01:09:58;27.52;;;13.10;;
29568;SDS011;16501;51.462;14.346;2022-11-20T01:12:24;29.08;;;12.60;;
29568;SDS011;16501;51.462;14.346;2022-11-20T01:14:49;27.15;;;12.75;;
29568;SDS011;16501;51.462;14.346;2022-11-20T01:17:14;31.67;;;13.00;;
29568;SDS011;16501;51.462;14.346;2022-11-20T01:19:39;36.35;;;13.95;;
29568;SDS011;16501;51.462;14.346;2022-11-20T01:22:05;27.05;;;12.70;;
29568;SDS011;16501;51.462;14.346;2022-11-20T01:24:30;35.58;;;14.32;;
29568;SDS011;16501;51.462;14.346;2022-11-20T01:26:55;27.80;;;13.63;;
29568;SDS011;16501;51.462;14.346;2022-11-20T01:29:22;32.85;;;13.75;;
29568;SDS011;16501;51.462;14.346;2022-11-20T01:31:48;28.85;;;12.77;;
29568;SDS011;16501;51.462;14.346;2022-11-20T01:34:14;26.45;;;12.38;;
29568;SDS011;16501;51.462;14.346;2022-11-20T01:36:42;35.80;;;14.45;;
29568;SDS011;16501;51.462;14.346;2022-11-20T01:39:10;30.10;;;12.68;;
29568;SDS011;16501;51.462;14.346;2022-11-20T01:41:38;23.33;;;12.15;;
29568;SDS011;16501;51.462;14.346;2022-11-20T01:44:48;29.38;;;12.98;;
29568;SDS011;16501;51.462;14.346;2022-11-20T01:47:08;29.05;;;12.65;;
29568;SDS011;16501;51.462;14.346;2022-11-20T01:49:56;32.50;;;12.80;;
29568;SDS011;16501;51.462;14.346;2022-11-20T01:52:27;27.00;;;12.30;;
29568;SDS011;16501;51.462;14.346;2022-11-20T01:55:01;27.05;;;13.40;;
29568;SDS011;16501;51.462;14.346;2022-11-20T01:57:28;28.65;;;12.23;;
29568;SDS011;16501;51.462;14.346;2022-11-20T01:59:59;27.95;;;11.82;;
29568;SDS011;16501;51.462;14.346;2022-11-20T02:02:31;25.77;;;12.55;;
29568;SDS011;16501;51.462;14.346;2022-11-20T02:04:56;23.55;;;12.05;;
29568;SDS011;16501;51.462;14.346;2022-11-20T02:07:29;29.48;;;13.18;;
29568;SDS011;16501;51.462;14.346;2022-11-20T02:09:54;28.88;;;12.75;;
29568;SDS011;16501;51.462;14.346;2022-11-20T02:12:20;30.38;;;13.80;;
29568;SDS011;16501;51.462;14.346;2022-11-20T02:15:04;25.95;;;12.73;;
29568;SDS011;16501;51.462;14.346;2022-11-20T02:17:29;30.20;;;13.20;;
29568;SDS011;16501;51.462;14.346;2022-11-20T02:19:55;29.05;;;12.43;;
29568;SDS011;16501;51.462;14.346;2022-11-20T02:22:35;25.88;;;11.98;;
29568;SDS011;16501;51.462;14.346;2022-11-20T02:25:08;31.25;;;13.05;;
29568;SDS011;16501;51.462;14.346;2022-11-20T02:27:35;28.77;;;11.73;;
29568;SDS011;16501;51.462;14.346;2022-11-20T02:30:01;29.67;;;13.52;;
29568;SDS011;16501;51.462;14.346;2022-11-20T02:32:33;30.33;;;14.02;;
29568;SDS011;16501;51.462;14.346;2022-11-20T02:35:38;28.30;;;12.70;;
29568;SDS011;16501;51.462;14.346;2022-11-20T02:37:56;29.33;;;13.48;;
29568;SDS011;16501;51.462;14.346;2022-11-20T02:40:23;29.55;;;12.65;;
29568;SDS011;16501;51.462;14.346;2022-11-20T02:42:53;29.65;;;13.63;;
29568;SDS011;16501;51.462;14.346;2022-11-20T02:45:18;27.70;;;11.95;;
29568;SDS011;16501;51.462;14.346;2022-11-20T02:47:44;27.88;;;12.50;;
29568;SDS011;16501;51.462;14.346;2022-11-20T02:50:09;28.58;;;13.65;;
29568;SDS011;16501;51.462;14.346;2022-11-20T02:52:35;26.70;;;11.45;;
29568;SDS011;16501;51.462;14.346;2022-11-20T02:55:00;31.63;;;13.73;;
29568;SDS011;16501;51.462;14.346;2022-11-20T02:57:25;30.00;;;13.88;;
29568;SDS011;16501;51.462;14.346;2022-11-20T02:59:51;32.45;;;13.95;;
29568;SDS011;16501;51.462;14.346;2022-11-20T03:02:16;32.58;;;14.10;;
29568;SDS011;16501;51.462;14.346;2022-11-20T03:04:41;30.85;;;13.20;;
29568;SDS011;16501;51.462;14.346;2022-11-20T03:07:07;33.33;;;14.45;;
29568;SDS011;16501;51.462;14.346;2022-11-20T03:09:32;30.30;;;12.77;;
29568;SDS011;16501;51.462;14.346;2022-11-20T03:11:58;31.13;;;12.60;;
29568;SDS011;16501;51.462;14.346;2022-11-20T03:14:23;28.75;;;13.43;;
29568;SDS011;16501;51.462;14.346;2022-11-20T03:16:48;29.38;;;12.93;;
29568;SDS011;16501;51.462;14.346;2022-11-20T03:19:13;25.15;;;12.27;;
29568;SDS011;16501;51.462;14.346;2022-11-20T03:21:39;28.15;;;12.50;;
29568;SDS011;16501;51.462;14.346;2022-11-20T03:24:04;34.83;;;15.13;;
29568;SDS011;16501;51.462;14.346;2022-11-20T03:26:30;30.58;;;14.35;;
29568;SDS011;16501;51.462;14.346;2022-11-20T03:28:56;31.63;;;13.63;;
29568;SDS011;16501;51.462;14.346;2022-11-20T03:31:24;33.10;;;14.82;;
29568;SDS011;16501;51.462;14.346;2022-11-20T03:33:51;35.30;;;14.02;;
29568;SDS011;16501;51.462;14.346;2022-11-20T03:36:17;31.88;;;14.38;;
29568;SDS011;16501;51.462;14.346;2022-11-20T03:38:44;33.92;;;13.95;;
29568;SDS011;16501;51.462;14.346;2022-11-20T03:41:10;32.83;;;13.32;;
29568;SDS011;16501;51.462;14.346;2022-11-20T03:43:37;33.28;;;13.35;;
29568;SDS011;16501;51.462;14.346;2022-11-20T03:46:04;29.27;;;12.43;;
29568;SDS011;16501;51.462;14.346;2022-11-20T03:48:30;35.58;;;13.43;;
29568;SDS011;16501;51.462;14.346;2022-11-20T03:51:12;28.48;;;12.10;;
29568;SDS011;16501;51.462;14.346;2022-11-20T03:53:42;31.35;;;12.80;;
29568;SDS011;16501;51.462;14.346;2022-11-20T03:56:24;31.70;;;13.27;;
29568;SDS011;16501;51.462;14.346;2022-11-20T03:58:56;30.15;;;12.82;;
29568;SDS011;16501;51.462;14.346;2022-11-20T04:01:24;30.48;;;13.80;;
29568;SDS011;16501;51.462;14.346;2022-11-20T04:03:51;35.30;;;12.93;;
29568;SDS011;16501;51.462;14.346;2022-11-20T04:06:25;32.58;;;14.35;;
29568;SDS011;16501;51.462;14.346;2022-11-20T04:08:55;31.23;;;14.23;;
29568;SDS011;16501;51.462;14.346;2022-11-20T04:11:22;29.30;;;13.57;;
29568;SDS011;16501;51.462;14.346;2022-11-20T04:13:52;31.63;;;14.07;;
29568;SDS011;16501;51.462;14.346;2022-11-20T04:16:19;37.72;;;14.73;;
29568;SDS011;16501;51.462;14.346;2022-11-20T04:18:45;34.33;;;13.20;;
29568;SDS011;16501;51.462;14.346;2022-11-20T04:21:11;36.05;;;14.73;;
29568;SDS011;16501;51.462;14.346;2022-11-20T04:23:37;33.30;;;14.15;;
29568;SDS011;16501;51.462;14.346;2022-11-20T04:26:10;33.75;;;14.38;;
29568;SDS011;16501;51.462;14.346;2022-11-20T04:28:36;34.65;;;14.23;;
29568;SDS011;16501;51.462;14.346;2022-11-20T04:31:06;36.75;;;14.63;;
29568;SDS011;16501;51.462;14.346;2022-11-20T04:33:38;37.33;;;16.10;;
29568;SDS011;16501;51.462;14.346;2022-11-20T04:36:10;32.28;;;13.43;;
29568;SDS011;16501;51.462;14.346;2022-11-20T04:38:37;33.47;;;14.70;;
29568;SDS011;16501;51.462;14.346;2022-11-20T04:41:04;39.70;;;15.43;;
29568;SDS011;16501;51.462;14.346;2022-11-20T04:43:31;31.25;;;13.52;;
29568;SDS011;16501;51.462;14.346;2022-11-20T04:45:57;34.85;;;14.27;;
29568;SDS011;16501;51.462;14.346;2022-11-20T04:48:24;36.38;;;14.85;;
29568;SDS011;16501;51.462;14.346;2022-11-20T04:50:50;34.58;;;13.25;;
29568;SDS011;16501;51.462;14.346;2022-11-20T04:53:16;40.28;;;16.40;;
29568;SDS011;16501;51.462;14.346;2022-11-20T04:55:41;39.47;;;15.13;;
29568;SDS011;16501;51.462;14.346;2022-11-20T04:58:07;35.85;;;14.70;;
29568;SDS011;16501;51.462;14.346;2022-11-20T05:00:33;40.60;;;15.60;;
29568;SDS011;16501;51.462;14.346;2022-11-20T05:02:58;34.90;;;14.60;;
29568;SDS011;16501;51.462;14.346;2022-11-20T05:05:23;36.55;;;15.10;;
29568;SDS011;16501;51.462;14.346;2022-11-20T05:07:48;38.25;;;16.08;;
29568;SDS011;16501;51.462;14.346;2022-11-20T05:10:14;34.88;;;14.10;;
29568;SDS011;16501;51.462;14.346;2022-11-20T05:12:39;36.88;;;15.38;;
29568;SDS011;16501;51.462;14.346;2022-11-20T05:15:05;38.78;;;15.00;;
29568;SDS011;16501;51.462;14.346;2022-11-20T05:17:30;36.30;;;15.15;;
29568;SDS011;16501;51.462;14.346;2022-11-20T05:19:55;37.28;;;15.75;;
29568;SDS011;16501;51.462;14.346;2022-11-20T05:22:21;38.42;;;16.95;;
29568;SDS011;16501;51.462;14.346;2022-11-20T05:24:46;37.20;;;15.48;;
29568;SDS011;16501;51.462;14.346;2022-11-20T05:27:11;39.13;;;15.85;;
29568;SDS011;16501;51.462;14.346;2022-11-20T05:29:37;37.70;;;15.68;;
29568;SDS011;16501;51.462;14.346;2022-11-20T05:32:02;43.15;;;18.05;;
29568;SDS011;16501;51.462;14.346;2022-11-20T05:34:27;32.67;;;15.48;;
29568;SDS011;16501;51.462;14.346;2022-11-20T05:36:53;43.05;;;18.45;;
29568;SDS011;16501;51.462;14.346;2022-11-20T05:39:18;43.47;;;17.80;;
29568;SDS011;16501;51.462;14.346;2022-11-20T05:41:43;39.58;;;17.33;;
29568;SDS011;16501;51.462;14.346;2022-11-20T05:44:12;37.10;;;17.02;;
29568;SDS011;16501;51.462;14.346;2022-11-20T05:46:38;40.20;;;15.35;;
29568;SDS011;16501;51.462;14.346;2022-11-20T05:49:03;45.33;;;18.13;;
29568;SDS011;16501;51.462;14.346;2022-11-20T05:51:28;40.83;;;18.15;;
29568;SDS011;16501;51.462;14.346;2022-11-20T05:53:56;38.63;;;16.30;;
29568;SDS011;16501;51.462;14.346;2022-11-20T05:56:22;45.90;;;17.88;;
29568;SDS011;16501;51.462;14.346;2022-11-20T05:58:48;39.25;;;17.38;;
29568;SDS011;16501;51.462;14.346;2022-11-20T06:01:14;42.10;;;17.90;;
29568;SDS011;16501;51.462;14.346;2022-11-20T06:03:44;38.85;;;17.23;;
29568;SDS011;16501;51.462;14.346;2022-11-20T06:06:12;43.55;;;17.98;;
29568;SDS011;16501;51.462;14.346;2022-11-20T06:08:38;39.97;;;16.13;;
29568;SDS011;16501;51.462;14.346;2022-11-20T06:11:04;42.00;;;18.63;;
29568;SDS011;16501;51.462;14.346;2022-11-20T06:13:31;36.35;;;16.25;;
29568;SDS011;16501;51.462;14.346;2022-11-20T06:15:56;35.92;;;16.55;;
29568;SDS011;16501;51.462;14.346;2022-11-20T06:18:22;45.05;;;18.33;;
29568;SDS011;16501;51.462;14.346;2022-11-20T06:20:47;53.75;;;21.17;;
29568;SDS011;16501;51.462;14.346;2022-11-20T06:23:12;54.63;;;21.30;;
29568;SDS011;16501;51.462;14.346;2022-11-20T06:25:38;44.47;;;19.60;;
29568;SDS011;16501;51.462;14.346;2022-11-20T06:28:04;48.53;;;19.23;;
29568;SDS011;16501;51.462;14.346;2022-11-20T06:30:30;46.85;;;18.20;;
29568;SDS011;16501;51.462;14.346;2022-11-20T06:32:55;45.75;;;18.77;;
29568;SDS011;16501;51.462;14.346;2022-11-20T06:35:20;41.25;;;16.73;;
29568;SDS011;16501;51.462;14.346;2022-11-20T06:37:45;41.05;;;17.98;;
29568;SDS011;16501;51.462;14.346;2022-11-20T06:40:11;42.08;;;16.75;;
29568;SDS011;16501;51.462;14.346;2022-11-20T06:42:36;42.33;;;17.58;;
29568;SDS011;16501;51.462;14.346;2022-11-20T06:45:02;39.88;;;16.83;;
29568;SDS011;16501;51.462;14.346;2022-11-20T06:47:27;37.45;;;16.77;;
29568;SDS011;16501;51.462;14.346;2022-11-20T06:49:53;39.05;;;16.13;;
29568;SDS011;16501;51.462;14.346;2022-11-20T06:52:18;39.70;;;16.60;;
29568;SDS011;16501;51.462;14.346;2022-11-20T06:54:43;38.03;;;16.35;;
29568;SDS011;16501;51.462;14.346;2022-11-20T06:57:09;39.28;;;17.85;;
29568;SDS011;16501;51.462;14.346;2022-11-20T06:59:34;39.38;;;16.35;;
29568;SDS011;16501;51.462;14.346;2022-11-20T07:01:59;39.80;;;16.73;;
29568;SDS011;16501;51.462;14.346;2022-11-20T07:04:24;42.05;;;17.52;;
29568;SDS011;16501;51.462;14.346;2022-11-20T07:06:50;44.88;;;17.27;;
29568;SDS011;16501;51.462;14.346;2022-11-20T07:09:15;45.53;;;17.60;;
29568;SDS011;16501;51.462;14.346;2022-11-20T07:11:41;43.47;;;17.58;;
29568;SDS011;16501;51.462;14.346;2022-11-20T07:14:06;43.38;;;17.27;;
29568;SDS011;16501;51.462;14.346;2022-11-20T07:16:31;42.67;;;18.38;;
29568;SDS011;16501;51.462;14.346;2022-11-20T07:18:59;39.17;;;17.05;;
29568;SDS011;16501;51.462;14.346;2022-11-20T07:21:24;38.63;;;17.50;;
29568;SDS011;16501;51.462;14.346;2022-11-20T07:23:49;39.42;;;16.58;;
29568;SDS011;16501;51.462;14.346;2022-11-20T07:26:15;39.72;;;16.45;;
29568;SDS011;16501;51.462;14.346;2022-11-20T07:28:40;56.80;;;24.10;;
29568;SDS011;16501;51.462;14.346;2022-11-20T07:31:08;56.53;;;22.98;;
29568;SDS011;16501;51.462;14.346;2022-11-20T07:33:33;43.75;;;20.00;;
29568;SDS011;16501;51.462;14.346;2022-11-20T07:35:59;47.03;;;19.80;;
29568;SDS011;16501;51.462;14.346;2022-11-20T07:38:25;48.22;;;19.15;;
29568;SDS011;16501;51.462;14.346;2022-11-20T07:40:53;44.28;;;19.20;;
29568;SDS011;16501;51.462;14.346;2022-11-20T07:43:20;45.63;;;18.48;;
29568;SDS011;16501;51.462;14.346;2022-11-20T07:45:45;45.55;;;19.20;;
29568;SDS011;16501;51.462;14.346;2022-11-20T07:48:10;44.90;;;19.42;;
29568;SDS011;16501;51.462;14.346;2022-11-20T07:50:35;44.30;;;19.60;;
29568;SDS011;16501;51.462;14.346;2022-11-20T07:53:04;43.47;;;18.33;;
29568;SDS011;16501;51.462;14.346;2022-11-20T07:55:30;39.33;;;18.10;;
29568;SDS011;16501;51.462;14.346;2022-11-20T07:57:56;40.72;;;17.23;;
29568;SDS011;16501;51.462;14.346;2022-11-20T08:00:22;41.38;;;18.05;;
29568;SDS011;16501;51.462;14.346;2022-11-20T08:02:48;44.15;;;19.15;;
29568;SDS011;16501;51.462;14.346;2022-11-20T08:05:13;43.75;;;18.10;;
29568;SDS011;16501;51.462;14.346;2022-11-20T08:07:39;45.95;;;19.67;;
29568;SDS011;16501;51.462;14.346;2022-11-20T08:10:06;50.63;;;19.08;;
29568;SDS011;16501;51.462;14.346;2022-11-20T08:12:33;46.00;;;19.52;;
29568;SDS011;16501;51.462;14.346;2022-11-20T08:15:16;39.75;;;17.80;;
29568;SDS011;16501;51.462;14.346;2022-11-20T08:17:42;43.28;;;18.05;;
29568;SDS011;16501;51.462;14.346;2022-11-20T08:20:08;47.63;;;19.98;;
29568;SDS011;16501;51.462;14.346;2022-11-20T08:22:34;44.28;;;19.00;;
29568;SDS011;16501;51.462;14.346;2022-11-20T08:24:59;38.80;;;16.90;;
29568;SDS011;16501;51.462;14.346;2022-11-20T08:27:24;38.40;;;17.10;;
29568;SDS011;16501;51.462;14.346;2022-11-20T08:29:50;42.25;;;16.55;;
29568;SDS011;16501;51.462;14.346;2022-11-20T08:32:15;99.60;;;53.08;;
29568;SDS011;16501;51.462;14.346;2022-11-20T08:34:40;69.28;;;33.40;;
29568;SDS011;16501;51.462;14.346;2022-11-20T08:37:05;69.43;;;35.97;;
29568;SDS011;16501;51.462;14.346;2022-11-20T08:39:31;44.30;;;18.75;;
29568;SDS011;16501;51.462;14.346;2022-11-20T08:41:56;49.78;;;22.17;;
29568;SDS011;16501;51.462;14.346;2022-11-20T08:44:21;60.60;;;26.48;;
29568;SDS011;16501;51.462;14.346;2022-11-20T08:46:47;42.22;;;19.42;;
29568;SDS011;16501;51.462;14.346;2022-11-20T08:49:12;42.80;;;18.95;;
29568;SDS011;16501;51.462;14.346;2022-11-20T08:51:39;41.80;;;18.33;;
29568;SDS011;16501;51.462;14.346;2022-11-20T08:54:05;39.83;;;16.92;;
29568;SDS011;16501;51.462;14.346;2022-11-20T08:56:31;34.28;;;16.35;;
29568;SDS011;16501;51.462;14.346;2022-11-20T08:58:57;36.50;;;14.80;;
29568;SDS011;16501;51.462;14.346;2022-11-20T09:01:24;41.50;;;16.25;;
29568;SDS011;16501;51.462;14.346;2022-11-20T09:03:49;37.78;;;15.45;;
29568;SDS011;16501;51.462;14.346;2022-11-20T09:06:15;33.13;;;15.63;;
29568;SDS011;16501;51.462;14.346;2022-11-20T09:08:43;34.70;;;15.55;;
29568;SDS011;16501;51.462;14.346;2022-11-20T09:11:09;32.28;;;15.52;;
29568;SDS011;16501;51.462;14.346;2022-11-20T09:13:35;33.63;;;15.20;;
29568;SDS011;16501;51.462;14.346;2022-11-20T09:16:05;32.05;;;16.98;;
29568;SDS011;16501;51.462;14.346;2022-11-20T09:18:33;30.48;;;16.10;;
29568;SDS011;16501;51.462;14.346;2022-11-20T09:21:01;24.23;;;14.00;;
29568;SDS011;16501;51.462;14.346;2022-11-20T09:23:33;28.42;;;16.38;;
29568;SDS011;16501;51.462;14.346;2022-11-20T09:26:07;39.25;;;21.33;;
29568;SDS011;16501;51.462;14.346;2022-11-20T09:28:34;31.75;;;15.10;;
29568;SDS011;16501;51.462;14.346;2022-11-20T09:30:59;28.60;;;15.75;;
29568;SDS011;16501;51.462;14.346;2022-11-20T09:33:25;33.15;;;16.75;;
29568;SDS011;16501;51.462;14.346;2022-11-20T09:35:51;31.33;;;16.25;;
29568;SDS011;16501;51.462;14.346;2022-11-20T09:38:16;30.35;;;16.90;;
29568;SDS011;16501;51.462;14.346;2022-11-20T09:40:58;29.27;;;15.55;;
29568;SDS011;16501;51.462;14.346;2022-11-20T09:46:44;28.48;;;15.43;;
29568;SDS011;16501;51.462;14.346;2022-11-20T09:49:44;28.20;;;15.63;;
29568;SDS011;16501;51.462;14.346;2022-11-20T09:52:49;30.48;;;16.52;;
29568;SDS011;16501;51.462;14.346;2022-11-20T09:55:27;25.05;;;14.13;;
29568;SDS011;16501;51.462;14.346;2022-11-20T09:57:54;28.67;;;15.45;;
29568;SDS011;16501;51.462;14.346;2022-11-20T10:00:21;26.13;;;15.43;;
29568;SDS011;16501;51.462;14.346;2022-11-20T10:05:48;31.27;;;15.93;;
29568;SDS011;16501;51.462;14.346;2022-11-20T10:08:25;27.42;;;14.02;;
29568;SDS011;16501;51.462;14.346;2022-11-20T10:11:05;26.42;;;14.93;;
29568;SDS011;16501;51.462;14.346;2022-11-20T10:13:56;23.17;;;14.05;;
29568;SDS011;16501;51.462;14.346;2022-11-20T10:16:52;26.55;;;14.35;;
29568;SDS011;16501;51.462;14.346;2022-11-20T10:19:54;22.80;;;13.23;;
29568;SDS011;16501;51.462;14.346;2022-11-20T10:22:41;26.58;;;15.77;;
29568;SDS011;16501;51.462;14.346;2022-11-20T10:25:34;25.83;;;14.38;;
29568;SDS011;16501;51.462;14.346;2022-11-20T10:30:55;25.58;;;14.35;;
29568;SDS011;16501;51.462;14.346;2022-11-20T10:33:25;26.25;;;15.15;;
29568;SDS011;16501;51.462;14.346;2022-11-20T10:38:46;21.85;;;12.38;;
29568;SDS011;16501;51.462;14.346;2022-11-20T10:41:19;23.38;;;12.13;;
29568;SDS011;16501;51.462;14.346;2022-11-20T10:43:51;23.65;;;13.50;;
29568;SDS011;16501;51.462;14.346;2022-11-20T10:46:22;22.42;;;13.05;;
29568;SDS011;16501;51.462;14.346;2022-11-20T10:48:48;23.27;;;12.52;;
29568;SDS011;16501;51.462;14.346;2022-11-20T10:51:34;20.10;;;11.57;;
29568;SDS011;16501;51.462;14.346;2022-11-20T11:02:14;19.67;;;10.73;;
29568;SDS011;16501;51.462;14.346;2022-11-20T11:04:43;20.38;;;10.07;;
29568;SDS011;16501;51.462;14.346;2022-11-20T11:07:19;22.38;;;10.35;;
29568;SDS011;16501;51.462;14.346;2022-11-20T11:09:52;20.13;;;11.20;;
29568;SDS011;16501;51.462;14.346;2022-11-20T11:12:19;21.13;;;10.52;;
29568;SDS011;16501;51.462;14.346;2022-11-20T11:14:49;19.33;;;10.70;;
29568;SDS011;16501;51.462;14.346;2022-11-20T11:17:37;18.00;;;11.00;;
29568;SDS011;16501;51.462;14.346;2022-11-20T11:20:16;17.98;;;10.88;;
29568;SDS011;16501;51.462;14.346;2022-11-20T11:22:50;18.48;;;11.27;;
29568;SDS011;16501;51.462;14.346;2022-11-20T11:25:27;19.83;;;9.90;;
29568;SDS011;16501;51.462;14.346;2022-11-20T11:28:02;17.80;;;10.32;;
29568;SDS011;16501;51.462;14.346;2022-11-20T11:30:50;17.10;;;9.93;;
29568;SDS011;16501;51.462;14.346;2022-11-20T11:33:20;20.90;;;10.10;;
29568;SDS011;16501;51.462;14.346;2022-11-20T11:35:48;16.92;;;8.95;;
29568;SDS011;16501;51.462;14.346;2022-11-20T11:38:21;14.15;;;8.93;;
29568;SDS011;16501;51.462;14.346;2022-11-20T11:40:53;22.83;;;10.60;;
29568;SDS011;16501;51.462;14.346;2022-11-20T11:43:20;15.95;;;9.40;;
29568;SDS011;16501;51.462;14.346;2022-11-20T11:46:23;13.77;;;9.15;;
29568;SDS011;16501;51.462;14.346;2022-11-20T11:49:00;14.75;;;9.15;;
29568;SDS011;16501;51.462;14.346;2022-11-20T11:51:32;13.30;;;8.52;;
29568;SDS011;16501;51.462;14.346;2022-11-20T11:54:18;14.13;;;8.70;;
29568;SDS011;16501;51.462;14.346;2022-11-20T11:56:48;14.73;;;8.40;;
29568;SDS011;16501;51.462;14.346;2022-11-20T11:59:16;13.68;;;8.45;;
29568;SDS011;16501;51.462;14.346;2022-11-20T12:01:52;13.18;;;7.82;;
29568;SDS011;16501;51.462;14.346;2022-11-20T12:04:34;14.80;;;8.95;;
29568;SDS011;16501;51.462;14.346;2022-11-20T12:07:22;14.98;;;8.50;;
29568;SDS011;16501;51.462;14.346;2022-11-20T12:10:00;25.85;;;12.80;;
29568;SDS011;16501;51.462;14.346;2022-11-20T12:12:27;19.40;;;10.30;;
29568;SDS011;16501;51.462;14.346;2022-11-20T12:15:00;14.32;;;8.77;;
29568;SDS011;16501;51.462;14.346;2022-11-20T12:17:25;20.17;;;12.02;;
29568;SDS011;16501;51.462;14.346;2022-11-20T12:19:51;16.92;;;10.40;;
29568;SDS011;16501;51.462;14.346;2022-11-20T12:22:26;17.17;;;9.82;;
29568;SDS011;16501;51.462;14.346;2022-11-20T12:25:00;15.55;;;8.82;;
29568;SDS011;16501;51.462;14.346;2022-11-20T12:30:19;16.38;;;9.63;;
29568;SDS011;16501;51.462;14.346;2022-11-20T12:33:02;17.25;;;10.15;;
29568;SDS011;16501;51.462;14.346;2022-11-20T12:35:38;16.30;;;8.98;;
29568;SDS011;16501;51.462;14.346;2022-11-20T12:39:09;13.40;;;8.18;;
29568;SDS011;16501;51.462;14.346;2022-11-20T12:48:23;20.90;;;9.50;;
29568;SDS011;16501;51.462;14.346;2022-11-20T12:53:53;20.77;;;10.15;;
29568;SDS011;16501;51.462;14.346;2022-11-20T12:59:22;14.60;;;7.05;;
29568;SDS011;16501;51.462;14.346;2022-11-20T13:01:59;15.90;;;8.65;;
29568;SDS011;16501;51.462;14.346;2022-11-20T13:04:39;22.27;;;11.73;;
29568;SDS011;16501;51.462;14.346;2022-11-20T13:07:30;16.20;;;9.10;;
29568;SDS011;16501;51.462;14.346;2022-11-20T13:09:56;17.08;;;8.65;;
29568;SDS011;16501;51.462;14.346;2022-11-20T13:15:00;14.75;;;8.38;;
29568;SDS011;16501;51.462;14.346;2022-11-20T13:17:59;19.95;;;10.60;;
29568;SDS011;16501;51.462;14.346;2022-11-20T13:20:27;15.35;;;7.57;;
29568;SDS011;16501;51.462;14.346;2022-11-20T13:22:55;14.07;;;7.50;;
29568;SDS011;16501;51.462;14.346;2022-11-20T13:25:35;14.68;;;8.02;;
29568;SDS011;16501;51.462;14.346;2022-11-20T13:28:24;15.10;;;8.00;;
29568;SDS011;16501;51.462;14.346;2022-11-20T13:30:54;14.00;;;8.05;;
29568;SDS011;16501;51.462;14.346;2022-11-20T13:33:28;15.70;;;8.93;;
29568;SDS011;16501;51.462;14.346;2022-11-20T13:36:04;32.97;;;16.05;;
29568;SDS011;16501;51.462;14.346;2022-11-20T13:38:42;22.25;;;11.52;;
29568;SDS011;16501;51.462;14.346;2022-11-20T13:41:23;21.60;;;10.15;;
29568;SDS011;16501;51.462;14.346;2022-11-20T13:43:52;20.30;;;10.80;;
29568;SDS011;16501;51.462;14.346;2022-11-20T13:46:22;19.90;;;9.85;;
29568;SDS011;16501;51.462;14.346;2022-11-20T13:48:49;21.92;;;10.20;;
29568;SDS011;16501;51.462;14.346;2022-11-20T13:54:10;18.90;;;8.18;;
29568;SDS011;16501;51.462;14.346;2022-11-20T13:59:51;15.68;;;8.27;;
29568;SDS011;16501;51.462;14.346;2022-11-20T14:02:26;15.57;;;8.45;;
29568;SDS011;16501;51.462;14.346;2022-11-20T14:04:55;21.90;;;10.07;;
29568;SDS011;16501;51.462;14.346;2022-11-20T14:07:24;19.45;;;9.90;;
29568;SDS011;16501;51.462;14.346;2022-11-20T14:09:56;18.73;;;8.73;;
29568;SDS011;16501;51.462;14.346;2022-11-20T14:12:23;20.15;;;10.25;;
29568;SDS011;16501;51.462;14.346;2022-11-20T14:14:53;17.13;;;9.32;;
29568;SDS011;16501;51.462;14.346;2022-11-20T14:17:37;32.50;;;14.40;;
29568;SDS011;16501;51.462;14.346;2022-11-20T14:20:06;19.75;;;10.20;;
29568;SDS011;16501;51.462;14.346;2022-11-20T14:22:38;15.20;;;8.98;;
29568;SDS011;16501;51.462;14.346;2022-11-20T14:27:38;19.63;;;10.27;;
29568;SDS011;16501;51.462;14.346;2022-11-20T14:30:16;22.52;;;11.13;;
29568;SDS011;16501;51.462;14.346;2022-11-20T14:32:44;33.30;;;13.32;;
29568;SDS011;16501;51.462;14.346;2022-11-20T14:35:21;23.50;;;11.10;;
29568;SDS011;16501;51.462;14.346;2022-11-20T14:37:50;54.92;;;18.00;;
29568;SDS011;16501;51.462;14.346;2022-11-20T14:43:00;22.95;;;11.65;;
29568;SDS011;16501;51.462;14.346;2022-11-20T14:45:25;22.52;;;10.85;;
29568;SDS011;16501;51.462;14.346;2022-11-20T14:47:52;19.60;;;10.57;;
29568;SDS011;16501;51.462;14.346;2022-11-20T14:50:26;23.27;;;11.25;;
29568;SDS011;16501;51.462;14.346;2022-11-20T14:52:54;18.80;;;11.35;;
29568;SDS011;16501;51.462;14.346;2022-11-20T14:55:27;19.83;;;10.30;;
29568;SDS011;16501;51.462;14.346;2022-11-20T14:58:06;19.15;;;10.10;;
29568;SDS011;16501;51.462;14.346;2022-11-20T15:03:23;16.90;;;9.65;;
29568;SDS011;16501;51.462;14.346;2022-11-20T15:08:20;22.17;;;10.48;;
29568;SDS011;16501;51.462;14.346;2022-11-20T15:10:46;22.50;;;11.85;;
29568;SDS011;16501;51.462;14.346;2022-11-20T15:13:15;30.00;;;16.60;;
29568;SDS011;16501;51.462;14.346;2022-11-20T15:15:48;20.92;;;10.60;;
29568;SDS011;16501;51.462;14.346;2022-11-20T15:18:16;21.33;;;11.00;;
29568;SDS011;16501;51.462;14.346;2022-11-20T15:20:44;26.48;;;13.82;;